sensor_id;sensor_type;location;lat;lon;timestamp;P1;durP1;ratioP1;P2;durP2;ratioP2
79454;SDS011;68900;52.134;5.420;2023-04-24T00:00:20;2.22;;;0.80;;
79454;SDS011;68900;52.134;5.420;2023-04-24T00:02:47;1.88;;;0.65;;
79454;SDS011;68900;52.134;5.420;2023-04-24T00:05:14;2.20;;;0.70;;
79454;SDS011;68900;52.134;5.420;2023-04-24T00:13:08;2.47;;;0.60;;
79454;SDS011;68900;52.134;5.420;2023-04-24T00:15:40;1.73;;;0.45;;
79454;SDS011;68900;52.134;5.420;2023-04-24T00:18:07;1.45;;;0.55;;
79454;SDS011;68900;52.134;5.420;2023-04-24T00:20:34;1.90;;;0.75;;
79454;SDS011;68900;52.134;5.420;2023-04-24T00:23:04;1.73;;;0.60;;
79454;SDS011;68900;52.134;5.420;2023-04-24T00:25:31;2.90;;;1.10;;
79454;SDS011;68900;52.134;5.420;2023-04-24T00:27:57;2.55;;;0.80;;
79454;SDS011;68900;52.134;5.420;2023-04-24T00:30:38;2.50;;;0.85;;
79454;SDS011;68900;52.134;5.420;2023-04-24T00:33:08;2.40;;;0.80;;
79454;SDS011;68900;52.134;5.420;2023-04-24T00:35:34;3.42;;;0.90;;
79454;SDS011;68900;52.134;5.420;2023-04-24T00:39:09;2.60;;;0.90;;
79454;SDS011;68900;52.134;5.420;2023-04-24T00:41:39;2.58;;;0.80;;
79454;SDS011;68900;52.134;5.420;2023-04-24T00:44:14;2.75;;;1.02;;
79454;SDS011;68900;52.134;5.420;2023-04-24T00:46:41;3.10;;;1.00;;
79454;SDS011;68900;52.134;5.420;2023-04-24T00:49:08;2.60;;;1.00;;
79454;SDS011;68900;52.134;5.420;2023-04-24T00:51:35;2.53;;;1.02;;
79454;SDS011;68900;52.134;5.420;2023-04-24T00:54:05;3.40;;;1.35;;
79454;SDS011;68900;52.134;5.420;2023-04-24T00:56:31;3.35;;;1.42;;
79454;SDS011;68900;52.134;5.420;2023-04-24T00:59:01;3.40;;;1.13;;
79454;SDS011;68900;52.134;5.420;2023-04-24T01:01:27;3.45;;;1.10;;
79454;SDS011;68900;52.134;5.420;2023-04-24T01:03:54;3.85;;;1.40;;
79454;SDS011;68900;52.134;5.420;2023-04-24T01:06:21;3.10;;;1.20;;
79454;SDS011;68900;52.134;5.420;2023-04-24T01:08:49;3.38;;;1.33;;
79454;SDS011;68900;52.134;5.420;2023-04-24T01:11:16;3.10;;;1.20;;
79454;SDS011;68900;52.134;5.420;2023-04-24T01:13:43;4.07;;;1.60;;
79454;SDS011;68900;52.134;5.420;2023-04-24T01:16:11;4.40;;;1.70;;
79454;SDS011;68900;52.134;5.420;2023-04-24T01:18:37;5.22;;;1.70;;
79454;SDS011;68900;52.134;5.420;2023-04-24T01:21:04;3.92;;;1.60;;
79454;SDS011;68900;52.134;5.420;2023-04-24T01:23:32;4.38;;;1.70;;
79454;SDS011;68900;52.134;5.420;2023-04-24T01:26:01;4.10;;;1.60;;
79454;SDS011;68900;52.134;5.420;2023-04-24T01:28:31;4.30;;;1.67;;
79454;SDS011;68900;52.134;5.420;2023-04-24T01:30:57;3.67;;;1.73;;
79454;SDS011;68900;52.134;5.420;2023-04-24T01:33:25;3.60;;;1.52;;
79454;SDS011;68900;52.134;5.420;2023-04-24T01:35:52;5.05;;;1.77;;
79454;SDS011;68900;52.134;5.420;2023-04-24T01:38:19;5.00;;;1.80;;
79454;SDS011;68900;52.134;5.420;2023-04-24T01:40:46;4.97;;;2.00;;
79454;SDS011;68900;52.134;5.420;2023-04-24T01:43:13;4.65;;;1.95;;
79454;SDS011;68900;52.134;5.420;2023-04-24T01:45:39;4.45;;;1.60;;
79454;SDS011;68900;52.134;5.420;2023-04-24T01:48:06;4.70;;;1.65;;
79454;SDS011;68900;52.134;5.420;2023-04-24T01:50:33;4.50;;;2.05;;
79454;SDS011;68900;52.134;5.420;2023-04-24T01:52:59;5.65;;;2.10;;
79454;SDS011;68900;52.134;5.420;2023-04-24T01:55:26;5.47;;;2.17;;
79454;SDS011;68900;52.134;5.420;2023-04-24T01:57:53;4.00;;;1.80;;
79454;SDS011;68900;52.134;5.420;2023-04-24T02:00:22;3.95;;;2.00;;
79454;SDS011;68900;52.134;5.420;2023-04-24T02:02:49;6.13;;;2.25;;
79454;SDS011;68900;52.134;5.420;2023-04-24T02:05:18;4.85;;;2.33;;
79454;SDS011;68900;52.134;5.420;2023-04-24T02:07:53;4.32;;;2.05;;
79454;SDS011;68900;52.134;5.420;2023-04-24T02:10:20;5.95;;;2.30;;
79454;SDS011;68900;52.134;5.420;2023-04-24T02:12:46;4.35;;;2.00;;
79454;SDS011;68900;52.134;5.420;2023-04-24T02:15:13;4.45;;;2.10;;
79454;SDS011;68900;52.134;5.420;2023-04-24T02:17:40;4.32;;;2.13;;
79454;SDS011;68900;52.134;5.420;2023-04-24T02:20:06;4.28;;;2.00;;
79454;SDS011;68900;52.134;5.420;2023-04-24T02:22:33;4.10;;;1.73;;
79454;SDS011;68900;52.134;5.420;2023-04-24T02:25:02;5.18;;;2.13;;
79454;SDS011;68900;52.134;5.420;2023-04-24T02:27:29;4.28;;;1.95;;
79454;SDS011;68900;52.134;5.420;2023-04-24T02:30:12;5.00;;;1.90;;
79454;SDS011;68900;52.134;5.420;2023-04-24T02:32:48;3.53;;;1.65;;
79454;SDS011;68900;52.134;5.420;2023-04-24T02:35:21;5.65;;;1.80;;
79454;SDS011;68900;52.134;5.420;2023-04-24T02:37:51;3.38;;;1.60;;
79454;SDS011;68900;52.134;5.420;2023-04-24T02:40:17;4.30;;;1.70;;
79454;SDS011;68900;52.134;5.420;2023-04-24T02:42:44;4.15;;;1.60;;
79454;SDS011;68900;52.134;5.420;2023-04-24T02:45:11;3.50;;;1.73;;
79454;SDS011;68900;52.134;5.420;2023-04-24T02:47:37;5.43;;;1.80;;
79454;SDS011;68900;52.134;5.420;2023-04-24T02:50:04;4.70;;;2.13;;
79454;SDS011;68900;52.134;5.420;2023-04-24T02:52:31;3.80;;;1.70;;
79454;SDS011;68900;52.134;5.420;2023-04-24T02:54:58;3.90;;;1.75;;
79454;SDS011;68900;52.134;5.420;2023-04-24T02:57:27;4.70;;;1.77;;
79454;SDS011;68900;52.134;5.420;2023-04-24T02:59:53;5.53;;;1.92;;
79454;SDS011;68900;52.134;5.420;2023-04-24T03:02:20;3.97;;;1.63;;
79454;SDS011;68900;52.134;5.420;2023-04-24T03:04:47;4.80;;;2.30;;
79454;SDS011;68900;52.134;5.420;2023-04-24T03:07:17;4.70;;;1.98;;
79454;SDS011;68900;52.134;5.420;2023-04-24T03:09:46;5.35;;;2.00;;
79454;SDS011;68900;52.134;5.420;2023-04-24T03:12:14;4.40;;;1.80;;
79454;SDS011;68900;52.134;5.420;2023-04-24T03:14:40;5.18;;;2.08;;
79454;SDS011;68900;52.134;5.420;2023-04-24T03:17:07;4.88;;;1.92;;
79454;SDS011;68900;52.134;5.420;2023-04-24T03:19:34;4.35;;;2.10;;
79454;SDS011;68900;52.134;5.420;2023-04-24T03:22:01;4.53;;;1.77;;
79454;SDS011;68900;52.134;5.420;2023-04-24T03:24:28;5.57;;;1.75;;
79454;SDS011;68900;52.134;5.420;2023-04-24T03:26:56;5.00;;;2.10;;
79454;SDS011;68900;52.134;5.420;2023-04-24T03:29:26;6.53;;;2.15;;
79454;SDS011;68900;52.134;5.420;2023-04-24T03:31:55;4.22;;;1.70;;
79454;SDS011;68900;52.134;5.420;2023-04-24T03:34:23;4.53;;;1.95;;
79454;SDS011;68900;52.134;5.420;2023-04-24T03:36:50;4.70;;;1.92;;
79454;SDS011;68900;52.134;5.420;2023-04-24T03:39:17;3.88;;;1.40;;
79454;SDS011;68900;52.134;5.420;2023-04-24T03:41:43;4.32;;;1.80;;
79454;SDS011;68900;52.134;5.420;2023-04-24T03:44:10;4.45;;;1.90;;
79454;SDS011;68900;52.134;5.420;2023-04-24T03:46:42;3.97;;;1.80;;
79454;SDS011;68900;52.134;5.420;2023-04-24T03:49:09;5.55;;;2.10;;
79454;SDS011;68900;52.134;5.420;2023-04-24T03:51:35;5.30;;;1.92;;
79454;SDS011;68900;52.134;5.420;2023-04-24T03:54:03;5.72;;;2.00;;
79454;SDS011;68900;52.134;5.420;2023-04-24T03:56:29;4.40;;;1.83;;
79454;SDS011;68900;52.134;5.420;2023-04-24T03:59:05;5.40;;;2.03;;
79454;SDS011;68900;52.134;5.420;2023-04-24T04:01:31;4.80;;;2.17;;
79454;SDS011;68900;52.134;5.420;2023-04-24T04:04:03;5.18;;;2.33;;
79454;SDS011;68900;52.134;5.420;2023-04-24T04:06:30;4.80;;;1.83;;
79454;SDS011;68900;52.134;5.420;2023-04-24T04:08:58;3.50;;;1.58;;
79454;SDS011;68900;52.134;5.420;2023-04-24T04:11:25;4.68;;;1.65;;
79454;SDS011;68900;52.134;5.420;2023-04-24T04:13:51;4.97;;;1.70;;
79454;SDS011;68900;52.134;5.420;2023-04-24T04:16:18;4.55;;;1.60;;
79454;SDS011;68900;52.134;5.420;2023-04-24T04:18:45;3.72;;;1.42;;
79454;SDS011;68900;52.134;5.420;2023-04-24T04:21:11;3.45;;;1.40;;
79454;SDS011;68900;52.134;5.420;2023-04-24T04:23:38;4.15;;;1.50;;
79454;SDS011;68900;52.134;5.420;2023-04-24T04:26:05;4.53;;;1.63;;
79454;SDS011;68900;52.134;5.420;2023-04-24T04:28:34;5.07;;;1.60;;
79454;SDS011;68900;52.134;5.420;2023-04-24T04:31:28;3.88;;;1.40;;
79454;SDS011;68900;52.134;5.420;2023-04-24T04:33:55;4.78;;;1.48;;
79454;SDS011;68900;52.134;5.420;2023-04-24T04:38:52;5.63;;;1.80;;
79454;SDS011;68900;52.134;5.420;2023-04-24T04:41:18;5.72;;;2.00;;
79454;SDS011;68900;52.134;5.420;2023-04-24T04:43:44;5.18;;;2.17;;
79454;SDS011;68900;52.134;5.420;2023-04-24T04:46:12;5.70;;;2.00;;
79454;SDS011;68900;52.134;5.420;2023-04-24T04:48:38;5.35;;;2.40;;
79454;SDS011;68900;52.134;5.420;2023-04-24T04:51:05;5.30;;;1.88;;
79454;SDS011;68900;52.134;5.420;2023-04-24T04:53:35;6.28;;;2.63;;
79454;SDS011;68900;52.134;5.420;2023-04-24T04:56:01;5.82;;;2.63;;
79454;SDS011;68900;52.134;5.420;2023-04-24T04:58:28;5.93;;;2.45;;
79454;SDS011;68900;52.134;5.420;2023-04-24T05:00:54;7.63;;;2.70;;
79454;SDS011;68900;52.134;5.420;2023-04-24T05:03:21;7.57;;;3.15;;
79454;SDS011;68900;52.134;5.420;2023-04-24T05:05:50;7.10;;;2.78;;
79454;SDS011;68900;52.134;5.420;2023-04-24T05:08:17;6.30;;;2.92;;
79454;SDS011;68900;52.134;5.420;2023-04-24T05:10:52;5.07;;;2.22;;
79454;SDS011;68900;52.134;5.420;2023-04-24T05:13:19;6.10;;;2.80;;
79454;SDS011;68900;52.134;5.420;2023-04-24T05:15:57;5.18;;;2.22;;
79454;SDS011;68900;52.134;5.420;2023-04-24T05:18:24;5.97;;;2.53;;
79454;SDS011;68900;52.134;5.420;2023-04-24T05:20:51;4.57;;;1.83;;
79454;SDS011;68900;52.134;5.420;2023-04-24T05:23:17;6.57;;;2.35;;
79454;SDS011;68900;52.134;5.420;2023-04-24T05:25:46;6.40;;;2.78;;
79454;SDS011;68900;52.134;5.420;2023-04-24T05:28:13;5.40;;;2.50;;
79454;SDS011;68900;52.134;5.420;2023-04-24T05:30:40;6.68;;;2.35;;
79454;SDS011;68900;52.134;5.420;2023-04-24T05:33:06;5.28;;;2.25;;
79454;SDS011;68900;52.134;5.420;2023-04-24T05:35:33;6.47;;;2.47;;
79454;SDS011;68900;52.134;5.420;2023-04-24T05:37:59;6.90;;;2.25;;
79454;SDS011;68900;52.134;5.420;2023-04-24T05:40:26;5.65;;;2.78;;
79454;SDS011;68900;52.134;5.420;2023-04-24T05:42:52;5.60;;;2.40;;
79454;SDS011;68900;52.134;5.420;2023-04-24T05:45:18;8.35;;;2.40;;
79454;SDS011;68900;52.134;5.420;2023-04-24T05:47:45;5.47;;;2.22;;
79454;SDS011;68900;52.134;5.420;2023-04-24T05:50:12;6.60;;;2.25;;
79454;SDS011;68900;52.134;5.420;2023-04-24T05:52:40;5.78;;;2.15;;
79454;SDS011;68900;52.134;5.420;2023-04-24T06:03:45;4.20;;;1.67;;
79454;SDS011;68900;52.134;5.420;2023-04-24T06:06:12;4.05;;;1.45;;
79454;SDS011;68900;52.134;5.420;2023-04-24T06:08:39;3.95;;;1.35;;
79454;SDS011;68900;52.134;5.420;2023-04-24T06:11:12;3.63;;;1.13;;
79454;SDS011;68900;52.134;5.420;2023-04-24T06:13:46;2.72;;;0.93;;
79454;SDS011;68900;52.134;5.420;2023-04-24T06:16:14;3.90;;;1.20;;
79454;SDS011;68900;52.134;5.420;2023-04-24T06:54:41;9.27;;;3.58;;
79454;SDS011;68900;52.134;5.420;2023-04-24T06:57:08;7.38;;;3.35;;
79454;SDS011;68900;52.134;5.420;2023-04-24T06:59:50;7.25;;;3.42;;
79454;SDS011;68900;52.134;5.420;2023-04-24T07:02:27;7.35;;;3.72;;
79454;SDS011;68900;52.134;5.420;2023-04-24T07:04:53;9.43;;;4.00;;
79454;SDS011;68900;52.134;5.420;2023-04-24T07:07:34;9.05;;;4.22;;
79454;SDS011;68900;52.134;5.420;2023-04-24T07:10:07;9.80;;;3.95;;
79454;SDS011;68900;52.134;5.420;2023-04-24T07:15:10;9.70;;;3.85;;
79454;SDS011;68900;52.134;5.420;2023-04-24T07:17:39;10.15;;;4.53;;
79454;SDS011;68900;52.134;5.420;2023-04-24T07:20:10;10.43;;;4.28;;
79454;SDS011;68900;52.134;5.420;2023-04-24T07:22:37;11.48;;;4.28;;
79454;SDS011;68900;52.134;5.420;2023-04-24T07:25:05;10.82;;;4.35;;
79454;SDS011;68900;52.134;5.420;2023-04-24T07:27:31;13.35;;;3.90;;
79454;SDS011;68900;52.134;5.420;2023-04-24T07:29:58;9.95;;;3.97;;
79454;SDS011;68900;52.134;5.420;2023-04-24T07:32:24;12.82;;;4.13;;
79454;SDS011;68900;52.134;5.420;2023-04-24T07:34:51;9.98;;;3.90;;
79454;SDS011;68900;52.134;5.420;2023-04-24T07:37:17;11.20;;;4.03;;
79454;SDS011;68900;52.134;5.420;2023-04-24T07:39:45;9.80;;;4.07;;
79454;SDS011;68900;52.134;5.420;2023-04-24T07:42:12;8.65;;;3.67;;
79454;SDS011;68900;52.134;5.420;2023-04-24T08:07:05;8.63;;;3.75;;
79454;SDS011;68900;52.134;5.420;2023-04-24T08:09:32;10.90;;;3.67;;
79454;SDS011;68900;52.134;5.420;2023-04-24T08:12:01;8.00;;;3.83;;
79454;SDS011;68900;52.134;5.420;2023-04-24T08:17:45;8.75;;;3.15;;
79454;SDS011;68900;52.134;5.420;2023-04-24T08:20:12;6.85;;;2.95;;
79454;SDS011;68900;52.134;5.420;2023-04-24T08:22:42;9.00;;;2.72;;
79454;SDS011;68900;52.134;5.420;2023-04-24T08:25:10;8.65;;;3.03;;
79454;SDS011;68900;52.134;5.420;2023-04-24T08:27:36;8.38;;;2.97;;
79454;SDS011;68900;52.134;5.420;2023-04-24T08:30:03;8.00;;;2.50;;
79454;SDS011;68900;52.134;5.420;2023-04-24T08:32:34;7.97;;;2.30;;
79454;SDS011;68900;52.134;5.420;2023-04-24T08:35:02;10.40;;;2.17;;
79454;SDS011;68900;52.134;5.420;2023-04-24T08:37:29;5.45;;;1.85;;
79454;SDS011;68900;52.134;5.420;2023-04-24T08:39:56;8.13;;;2.08;;
79454;SDS011;68900;52.134;5.420;2023-04-24T08:42:23;12.07;;;2.47;;
79454;SDS011;68900;52.134;5.420;2023-04-24T08:44:52;11.43;;;2.47;;
79454;SDS011;68900;52.134;5.420;2023-04-24T08:47:20;11.40;;;2.22;;
79454;SDS011;68900;52.134;5.420;2023-04-24T08:49:48;12.27;;;2.40;;
79454;SDS011;68900;52.134;5.420;2023-04-24T08:52:16;8.20;;;1.80;;
79454;SDS011;68900;52.134;5.420;2023-04-24T08:54:45;9.45;;;1.90;;
79454;SDS011;68900;52.134;5.420;2023-04-24T08:57:13;9.98;;;1.70;;
79454;SDS011;68900;52.134;5.420;2023-04-24T08:59:41;8.55;;;1.50;;
79454;SDS011;68900;52.134;5.420;2023-04-24T09:02:10;6.38;;;1.30;;
79454;SDS011;68900;52.134;5.420;2023-04-24T09:04:41;8.85;;;1.85;;
79454;SDS011;68900;52.134;5.420;2023-04-24T09:07:10;8.63;;;2.00;;
79454;SDS011;68900;52.134;5.420;2023-04-24T09:09:56;8.38;;;1.70;;
79454;SDS011;68900;52.134;5.420;2023-04-24T09:12:23;9.65;;;1.63;;
79454;SDS011;68900;52.134;5.420;2023-04-24T09:14:49;8.57;;;1.40;;
79454;SDS011;68900;52.134;5.420;2023-04-24T09:17:17;7.53;;;1.67;;
79454;SDS011;68900;52.134;5.420;2023-04-24T09:19:43;7.53;;;1.30;;
79454;SDS011;68900;52.134;5.420;2023-04-24T09:22:11;9.05;;;1.30;;
79454;SDS011;68900;52.134;5.420;2023-04-24T09:24:38;13.38;;;1.67;;
79454;SDS011;68900;52.134;5.420;2023-04-24T09:27:04;8.98;;;1.35;;
79454;SDS011;68900;52.134;5.420;2023-04-24T09:29:31;7.60;;;1.75;;
79454;SDS011;68900;52.134;5.420;2023-04-24T09:31:59;7.88;;;1.25;;
79454;SDS011;68900;52.134;5.420;2023-04-24T09:34:26;7.25;;;1.52;;
79454;SDS011;68900;52.134;5.420;2023-04-24T09:36:53;5.03;;;1.20;;
79454;SDS011;68900;52.134;5.420;2023-04-24T09:39:20;5.32;;;1.20;;
79454;SDS011;68900;52.134;5.420;2023-04-24T09:44:20;3.92;;;1.20;;
79454;SDS011;68900;52.134;5.420;2023-04-24T09:46:55;9.18;;;1.55;;
79454;SDS011;68900;52.134;5.420;2023-04-24T09:51:51;8.20;;;1.30;;
79454;SDS011;68900;52.134;5.420;2023-04-24T09:54:33;7.05;;;1.38;;
79454;SDS011;68900;52.134;5.420;2023-04-24T09:57:02;7.97;;;1.52;;
79454;SDS011;68900;52.134;5.420;2023-04-24T09:59:29;7.20;;;1.05;;
79454;SDS011;68900;52.134;5.420;2023-04-24T10:01:56;8.18;;;1.70;;
79454;SDS011;68900;52.134;5.420;2023-04-24T10:04:27;8.55;;;1.35;;
79454;SDS011;68900;52.134;5.420;2023-04-24T10:07:19;9.43;;;1.65;;
79454;SDS011;68900;52.134;5.420;2023-04-24T10:09:45;7.00;;;1.50;;
79454;SDS011;68900;52.134;5.420;2023-04-24T10:12:12;10.38;;;1.17;;
79454;SDS011;68900;52.134;5.420;2023-04-24T10:14:39;4.90;;;1.02;;
79454;SDS011;68900;52.134;5.420;2023-04-24T10:17:09;6.43;;;1.33;;
79454;SDS011;68900;52.134;5.420;2023-04-24T10:19:36;9.05;;;1.42;;
79454;SDS011;68900;52.134;5.420;2023-04-24T10:22:03;6.93;;;1.50;;
79454;SDS011;68900;52.134;5.420;2023-04-24T10:28:21;6.05;;;1.10;;
79454;SDS011;68900;52.134;5.420;2023-04-24T10:30:50;6.97;;;0.95;;
79454;SDS011;68900;52.134;5.420;2023-04-24T10:33:21;6.40;;;0.80;;
79454;SDS011;68900;52.134;5.420;2023-04-24T10:35:49;5.55;;;0.88;;
79454;SDS011;68900;52.134;5.420;2023-04-24T10:38:18;2.92;;;0.77;;
79454;SDS011;68900;52.134;5.420;2023-04-24T10:48:33;2.95;;;0.47;;
79454;SDS011;68900;52.134;5.420;2023-04-24T10:50:59;1.95;;;0.38;;
79454;SDS011;68900;52.134;5.420;2023-04-24T10:53:28;3.50;;;0.68;;
79454;SDS011;68900;52.134;5.420;2023-04-24T10:56:09;2.30;;;0.63;;
79454;SDS011;68900;52.134;5.420;2023-04-24T10:58:58;1.85;;;0.40;;
79454;SDS011;68900;52.134;5.420;2023-04-24T11:01:28;7.20;;;0.93;;
79454;SDS011;68900;52.134;5.420;2023-04-24T11:03:57;3.78;;;0.60;;
79454;SDS011;68900;52.134;5.420;2023-04-24T11:09:05;4.22;;;0.65;;
79454;SDS011;68900;52.134;5.420;2023-04-24T11:11:34;4.15;;;0.60;;
79454;SDS011;68900;52.134;5.420;2023-04-24T11:14:07;2.63;;;0.45;;
79454;SDS011;68900;52.134;5.420;2023-04-24T11:16:53;4.07;;;0.70;;
79454;SDS011;68900;52.134;5.420;2023-04-24T11:19:29;3.15;;;0.57;;
79454;SDS011;68900;52.134;5.420;2023-04-24T11:22:03;2.42;;;0.75;;
79454;SDS011;68900;52.134;5.420;2023-04-24T11:24:48;6.50;;;0.90;;
79454;SDS011;68900;52.134;5.420;2023-04-24T11:27:17;3.13;;;0.60;;
79454;SDS011;68900;52.134;5.420;2023-04-24T11:30:02;3.00;;;0.40;;
79454;SDS011;68900;52.134;5.420;2023-04-24T11:35:14;4.38;;;0.65;;
79454;SDS011;68900;52.134;5.420;2023-04-24T11:37:45;5.47;;;0.73;;
79454;SDS011;68900;52.134;5.420;2023-04-24T11:40:34;3.40;;;0.60;;
79454;SDS011;68900;52.134;5.420;2023-04-24T11:43:06;3.85;;;0.60;;
79454;SDS011;68900;52.134;5.420;2023-04-24T11:45:33;4.95;;;0.70;;
79454;SDS011;68900;52.134;5.420;2023-04-24T11:48:05;3.67;;;0.60;;
79454;SDS011;68900;52.134;5.420;2023-04-24T11:50:32;3.47;;;0.70;;
79454;SDS011;68900;52.134;5.420;2023-04-24T11:52:58;2.83;;;0.80;;
79454;SDS011;68900;52.134;5.420;2023-04-24T11:55:33;3.63;;;0.55;;
79454;SDS011;68900;52.134;5.420;2023-04-24T11:58:14;1.83;;;0.40;;
79454;SDS011;68900;52.134;5.420;2023-04-24T12:00:40;1.70;;;0.40;;
79454;SDS011;68900;52.134;5.420;2023-04-24T12:03:08;0.95;;;0.30;;
79454;SDS011;68900;52.134;5.420;2023-04-24T12:08:03;2.38;;;0.30;;
79454;SDS011;68900;52.134;5.420;2023-04-24T12:10:31;1.80;;;0.30;;
79454;SDS011;68900;52.134;5.420;2023-04-24T12:12:59;1.60;;;0.57;;
79454;SDS011;68900;52.134;5.420;2023-04-24T12:15:26;4.43;;;0.47;;
79454;SDS011;68900;52.134;5.420;2023-04-24T12:17:54;2.20;;;0.50;;
79454;SDS011;68900;52.134;5.420;2023-04-24T12:20:29;5.00;;;0.55;;
79454;SDS011;68900;52.134;5.420;2023-04-24T12:22:57;4.28;;;0.50;;
79454;SDS011;68900;52.134;5.420;2023-04-24T12:32:18;4.38;;;0.60;;
79454;SDS011;68900;52.134;5.420;2023-04-24T12:34:44;4.80;;;0.80;;
79454;SDS011;68900;52.134;5.420;2023-04-24T12:37:19;4.28;;;0.70;;
79454;SDS011;68900;52.134;5.420;2023-04-24T12:40:02;2.00;;;0.50;;
79454;SDS011;68900;52.134;5.420;2023-04-24T12:42:34;6.65;;;0.80;;
79454;SDS011;68900;52.134;5.420;2023-04-24T12:45:03;3.75;;;0.65;;
79454;SDS011;68900;52.134;5.420;2023-04-24T12:47:36;6.40;;;0.70;;
79454;SDS011;68900;52.134;5.420;2023-04-24T12:54:05;4.43;;;0.77;;
79454;SDS011;68900;52.134;5.420;2023-04-24T13:08:02;5.32;;;0.80;;
79454;SDS011;68900;52.134;5.420;2023-04-24T13:10:34;7.30;;;1.08;;
79454;SDS011;68900;52.134;5.420;2023-04-24T13:13:01;7.53;;;1.45;;
79454;SDS011;68900;52.134;5.420;2023-04-24T13:15:29;8.27;;;1.40;;
79454;SDS011;68900;52.134;5.420;2023-04-24T13:18:02;9.60;;;1.23;;
79454;SDS011;68900;52.134;5.420;2023-04-24T13:20:50;9.38;;;1.67;;
79454;SDS011;68900;52.134;5.420;2023-04-24T13:29:07;7.30;;;1.40;;
79454;SDS011;68900;52.134;5.420;2023-04-24T13:54:56;6.03;;;1.25;;
79454;SDS011;68900;52.134;5.420;2023-04-24T13:57:23;7.15;;;1.40;;
79454;SDS011;68900;52.134;5.420;2023-04-24T13:59:50;8.38;;;1.55;;
79454;SDS011;68900;52.134;5.420;2023-04-24T14:02:16;7.95;;;1.35;;
79454;SDS011;68900;52.134;5.420;2023-04-24T14:04:43;7.75;;;1.50;;
79454;SDS011;68900;52.134;5.420;2023-04-24T14:07:12;7.40;;;1.48;;
79454;SDS011;68900;52.134;5.420;2023-04-24T14:09:39;8.50;;;1.40;;
79454;SDS011;68900;52.134;5.420;2023-04-24T14:12:05;9.07;;;1.30;;
79454;SDS011;68900;52.134;5.420;2023-04-24T14:14:33;10.25;;;1.60;;
79454;SDS011;68900;52.134;5.420;2023-04-24T14:17:03;5.40;;;1.45;;
79454;SDS011;68900;52.134;5.420;2023-04-24T14:19:30;10.05;;;1.40;;
79454;SDS011;68900;52.134;5.420;2023-04-24T14:35:07;7.60;;;1.73;;
79454;SDS011;68900;52.134;5.420;2023-04-24T14:37:46;9.60;;;1.70;;
79454;SDS011;68900;52.134;5.420;2023-04-24T14:40:14;11.45;;;2.00;;
79454;SDS011;68900;52.134;5.420;2023-04-24T14:43:23;9.07;;;1.35;;
79454;SDS011;68900;52.134;5.420;2023-04-24T14:45:56;10.10;;;1.60;;
79454;SDS011;68900;52.134;5.420;2023-04-24T15:28:11;10.73;;;1.98;;
79454;SDS011;68900;52.134;5.420;2023-04-24T15:33:41;12.50;;;2.00;;
79454;SDS011;68900;52.134;5.420;2023-04-24T15:36:43;8.35;;;1.80;;
79454;SDS011;68900;52.134;5.420;2023-04-24T16:29:46;9.43;;;1.80;;
79454;SDS011;68900;52.134;5.420;2023-04-24T16:32:25;12.75;;;2.20;;
79454;SDS011;68900;52.134;5.420;2023-04-24T16:37:50;9.32;;;1.85;;
79454;SDS011;68900;52.134;5.420;2023-04-24T16:40:28;9.52;;;2.00;;
79454;SDS011;68900;52.134;5.420;2023-04-24T16:45:52;6.95;;;1.80;;
79454;SDS011;68900;52.134;5.420;2023-04-24T16:48:28;8.68;;;2.00;;
79454;SDS011;68900;52.134;5.420;2023-04-24T16:51:04;6.60;;;1.67;;
79454;SDS011;68900;52.134;5.420;2023-04-24T17:00:11;9.13;;;1.90;;
79454;SDS011;68900;52.134;5.420;2023-04-24T17:02:45;8.55;;;2.22;;
79454;SDS011;68900;52.134;5.420;2023-04-24T17:09:04;14.40;;;2.30;;
79454;SDS011;68900;52.134;5.420;2023-04-24T17:11:31;12.15;;;2.28;;
79454;SDS011;68900;52.134;5.420;2023-04-24T19:39:59;4.00;;;0.88;;
79454;SDS011;68900;52.134;5.420;2023-04-24T19:49:29;4.00;;;1.00;;
79454;SDS011;68900;52.134;5.420;2023-04-24T19:58:12;8.88;;;0.93;;
79454;SDS011;68900;52.134;5.420;2023-04-24T20:04:11;4.22;;;1.13;;
79454;SDS011;68900;52.134;5.420;2023-04-24T20:06:40;6.10;;;0.90;;
79454;SDS011;68900;52.134;5.420;2023-04-24T20:20:53;4.97;;;0.88;;
79454;SDS011;68900;52.134;5.420;2023-04-24T21:29:47;2.88;;;0.90;;
79454;SDS011;68900;52.134;5.420;2023-04-24T21:47:18;3.72;;;0.90;;
79454;SDS011;68900;52.134;5.420;2023-04-24T21:55:01;2.97;;;0.80;;
79454;SDS011;68900;52.134;5.420;2023-04-24T21:57:47;3.50;;;0.60;;
79454;SDS011;68900;52.134;5.420;2023-04-24T22:01:15;3.03;;;0.60;;
79454;SDS011;68900;52.134;5.420;2023-04-24T22:03:42;5.10;;;1.00;;
79454;SDS011;68900;52.134;5.420;2023-04-24T22:06:08;2.88;;;0.70;;
79454;SDS011;68900;52.134;5.420;2023-04-24T22:11:04;3.65;;;0.73;;
79454;SDS011;68900;52.134;5.420;2023-04-24T22:13:41;5.88;;;1.20;;
79454;SDS011;68900;52.134;5.420;2023-04-24T22:16:08;6.75;;;1.08;;
79454;SDS011;68900;52.134;5.420;2023-04-24T22:18:34;4.80;;;1.15;;
79454;SDS011;68900;52.134;5.420;2023-04-24T22:21:11;7.53;;;1.30;;
79454;SDS011;68900;52.134;5.420;2023-04-24T22:23:41;6.38;;;1.35;;
79454;SDS011;68900;52.134;5.420;2023-04-24T22:31:53;5.43;;;0.90;;
79454;SDS011;68900;52.134;5.420;2023-04-24T23:03:08;10.00;;;1.92;;
79454;SDS011;68900;52.134;5.420;2023-04-24T23:05:35;9.27;;;1.85;;
79454;SDS011;68900;52.134;5.420;2023-04-24T23:08:02;11.32;;;1.65;;
79454;SDS011;68900;52.134;5.420;2023-04-24T23:10:28;8.63;;;1.42;;
79454;SDS011;68900;52.134;5.420;2023-04-24T23:13:07;6.70;;;1.77;;
79454;SDS011;68900;52.134;5.420;2023-04-24T23:15:40;10.70;;;1.35;;
79454;SDS011;68900;52.134;5.420;2023-04-24T23:18:07;15.07;;;2.40;;
79454;SDS011;68900;52.134;5.420;2023-04-24T23:20:34;6.85;;;1.20;;
79454;SDS011;68900;52.134;5.420;2023-04-24T23:23:33;8.45;;;1.73;;
79454;SDS011;68900;52.134;5.420;2023-04-24T23:25:59;7.82;;;1.70;;
79454;SDS011;68900;52.134;5.420;2023-04-24T23:28:26;8.05;;;1.58;;
79454;SDS011;68900;52.134;5.420;2023-04-24T23:30:53;8.35;;;1.50;;
79454;SDS011;68900;52.134;5.420;2023-04-24T23:33:19;9.77;;;1.63;;
79454;SDS011;68900;52.134;5.420;2023-04-24T23:35:55;14.30;;;1.88;;
79454;SDS011;68900;52.134;5.420;2023-04-24T23:38:31;8.20;;;1.58;;
79454;SDS011;68900;52.134;5.420;2023-04-24T23:41:15;7.78;;;1.50;;
79454;SDS011;68900;52.134;5.420;2023-04-24T23:43:41;8.55;;;1.45;;
79454;SDS011;68900;52.134;5.420;2023-04-24T23:46:07;10.40;;;1.80;;
79454;SDS011;68900;52.134;5.420;2023-04-24T23:48:35;9.75;;;1.65;;
79454;SDS011;68900;52.134;5.420;2023-04-24T23:51:02;10.30;;;1.48;;
79454;SDS011;68900;52.134;5.420;2023-04-24T23:53:29;12.32;;;1.92;;
79454;SDS011;68900;52.134;5.420;2023-04-24T23:55:55;12.65;;;1.95;;
79454;SDS011;68900;52.134;5.420;2023-04-24T23:58:22;10.23;;;1.80;;
